sensor_id;sensor_type;location;lat;lon;timestamp;temperature;humidity
51500;DHT22;39101;53.478;6.158;2023-01-15T00:03:47;7.20;99.90
51500;DHT22;39101;53.478;6.158;2023-01-15T00:06:14;6.90;99.90
51500;DHT22;39101;53.478;6.158;2023-01-15T00:08:40;7.10;99.90
51500;DHT22;39101;53.478;6.158;2023-01-15T00:11:06;6.80;99.90
51500;DHT22;39101;53.478;6.158;2023-01-15T00:13:32;6.80;99.90
51500;DHT22;39101;53.478;6.158;2023-01-15T00:16:08;7.00;99.90
51500;DHT22;39101;53.478;6.158;2023-01-15T00:18:34;7.30;99.90
51500;DHT22;39101;53.478;6.158;2023-01-15T00:21:02;7.30;99.90
51500;DHT22;39101;53.478;6.158;2023-01-15T00:23:28;6.80;99.90
51500;DHT22;39101;53.478;6.158;2023-01-15T00:26:15;6.90;99.90
51500;DHT22;39101;53.478;6.158;2023-01-15T00:28:59;7.00;99.90
51500;DHT22;39101;53.478;6.158;2023-01-15T00:31:26;7.20;99.90
51500;DHT22;39101;53.478;6.158;2023-01-15T00:33:51;6.90;99.90
51500;DHT22;39101;53.478;6.158;2023-01-15T00:36:17;6.70;99.90
51500;DHT22;39101;53.478;6.158;2023-01-15T00:38:43;6.80;99.90
51500;DHT22;39101;53.478;6.158;2023-01-15T00:41:08;7.10;99.90
51500;DHT22;39101;53.478;6.158;2023-01-15T00:43:34;6.90;99.90
51500;DHT22;39101;53.478;6.158;2023-01-15T00:46:00;7.10;99.90
51500;DHT22;39101;53.478;6.158;2023-01-15T00:48:26;6.90;99.90
51500;DHT22;39101;53.478;6.158;2023-01-15T00:50:51;6.70;99.90
51500;DHT22;39101;53.478;6.158;2023-01-15T00:53:17;6.80;99.90
51500;DHT22;39101;53.478;6.158;2023-01-15T00:55:43;7.20;99.90
51500;DHT22;39101;53.478;6.158;2023-01-15T00:58:09;7.10;99.90
51500;DHT22;39101;53.478;6.158;2023-01-15T01:00:34;7.20;99.90
51500;DHT22;39101;53.478;6.158;2023-01-15T01:03:00;7.10;99.90
51500;DHT22;39101;53.478;6.158;2023-01-15T01:05:25;7.20;99.90
51500;DHT22;39101;53.478;6.158;2023-01-15T01:07:51;7.00;99.90
51500;DHT22;39101;53.478;6.158;2023-01-15T01:10:17;7.00;99.90
51500;DHT22;39101;53.478;6.158;2023-01-15T01:12:43;6.80;99.90
51500;DHT22;39101;53.478;6.158;2023-01-15T01:15:09;6.90;99.90
51500;DHT22;39101;53.478;6.158;2023-01-15T01:17:36;7.20;99.90
51500;DHT22;39101;53.478;6.158;2023-01-15T01:20:03;6.80;99.90
51500;DHT22;39101;53.478;6.158;2023-01-15T01:22:29;7.30;99.90
51500;DHT22;39101;53.478;6.158;2023-01-15T01:24:58;6.80;99.90
51500;DHT22;39101;53.478;6.158;2023-01-15T01:27:23;6.80;99.90
51500;DHT22;39101;53.478;6.158;2023-01-15T01:29:49;6.80;99.90
51500;DHT22;39101;53.478;6.158;2023-01-15T01:32:15;7.10;99.90
51500;DHT22;39101;53.478;6.158;2023-01-15T01:34:41;7.20;99.90
51500;DHT22;39101;53.478;6.158;2023-01-15T01:37:06;7.20;99.90
51500;DHT22;39101;53.478;6.158;2023-01-15T01:39:32;6.70;99.90
51500;DHT22;39101;53.478;6.158;2023-01-15T01:41:58;7.10;99.90
51500;DHT22;39101;53.478;6.158;2023-01-15T01:47:00;6.60;99.90
51500;DHT22;39101;53.478;6.158;2023-01-15T01:49:27;6.80;99.90
51500;DHT22;39101;53.478;6.158;2023-01-15T01:52:00;7.10;99.90
51500;DHT22;39101;53.478;6.158;2023-01-15T01:54:28;6.80;99.90
51500;DHT22;39101;53.478;6.158;2023-01-15T01:56:55;7.10;99.90
51500;DHT22;39101;53.478;6.158;2023-01-15T01:59:21;7.10;99.90
51500;DHT22;39101;53.478;6.158;2023-01-15T02:01:48;7.10;99.90
51500;DHT22;39101;53.478;6.158;2023-01-15T02:04:16;7.10;99.90
51500;DHT22;39101;53.478;6.158;2023-01-15T02:06:42;7.10;99.90
51500;DHT22;39101;53.478;6.158;2023-01-15T02:09:08;7.00;99.90
51500;DHT22;39101;53.478;6.158;2023-01-15T02:11:34;7.10;99.90
51500;DHT22;39101;53.478;6.158;2023-01-15T02:14:18;7.00;99.90
51500;DHT22;39101;53.478;6.158;2023-01-15T02:17:11;6.70;99.90
51500;DHT22;39101;53.478;6.158;2023-01-15T02:22:53;6.70;99.90
51500;DHT22;39101;53.478;6.158;2023-01-15T02:28:15;6.70;99.90
51500;DHT22;39101;53.478;6.158;2023-01-15T02:30:47;7.00;99.90
51500;DHT22;39101;53.478;6.158;2023-01-15T02:33:27;6.90;99.90
51500;DHT22;39101;53.478;6.158;2023-01-15T02:35:56;7.10;99.90
51500;DHT22;39101;53.478;6.158;2023-01-15T02:38:28;7.10;99.90
51500;DHT22;39101;53.478;6.158;2023-01-15T02:40:58;7.00;99.90
51500;DHT22;39101;53.478;6.158;2023-01-15T02:43:25;7.10;99.90
51500;DHT22;39101;53.478;6.158;2023-01-15T02:45:53;6.70;99.90
51500;DHT22;39101;53.478;6.158;2023-01-15T02:48:22;7.20;99.90
51500;DHT22;39101;53.478;6.158;2023-01-15T02:50:54;7.10;99.90
51500;DHT22;39101;53.478;6.158;2023-01-15T02:53:25;6.80;99.90
51500;DHT22;39101;53.478;6.158;2023-01-15T02:55:54;6.90;99.90
51500;DHT22;39101;53.478;6.158;2023-01-15T02:58:23;6.60;99.90
51500;DHT22;39101;53.478;6.158;2023-01-15T03:00:53;6.70;99.90
51500;DHT22;39101;53.478;6.158;2023-01-15T03:06:14;7.00;99.90
51500;DHT22;39101;53.478;6.158;2023-01-15T03:08:41;6.70;99.90
51500;DHT22;39101;53.478;6.158;2023-01-15T03:11:13;7.20;99.90
51500;DHT22;39101;53.478;6.158;2023-01-15T03:16:34;7.10;99.90
51500;DHT22;39101;53.478;6.158;2023-01-15T03:22:25;7.10;99.90
51500;DHT22;39101;53.478;6.158;2023-01-15T03:27:11;6.70;99.90
51500;DHT22;39101;53.478;6.158;2023-01-15T03:29:41;7.10;99.90
51500;DHT22;39101;53.478;6.158;2023-01-15T03:32:08;6.70;99.90
51500;DHT22;39101;53.478;6.158;2023-01-15T03:34:43;7.00;99.90
51500;DHT22;39101;53.478;6.158;2023-01-15T03:37:10;6.60;99.90
51500;DHT22;39101;53.478;6.158;2023-01-15T03:39:36;6.70;99.90
51500;DHT22;39101;53.478;6.158;2023-01-15T03:42:40;6.90;99.90
51500;DHT22;39101;53.478;6.158;2023-01-15T03:47:53;6.90;99.90
51500;DHT22;39101;53.478;6.158;2023-01-15T03:53:19;6.40;99.90
51500;DHT22;39101;53.478;6.158;2023-01-15T03:58:46;6.40;99.90
51500;DHT22;39101;53.478;6.158;2023-01-15T04:01:17;6.80;99.90
51500;DHT22;39101;53.478;6.158;2023-01-15T04:03:44;6.30;99.90
51500;DHT22;39101;53.478;6.158;2023-01-15T04:06:10;6.70;99.90
51500;DHT22;39101;53.478;6.158;2023-01-15T04:08:41;6.60;99.90
51500;DHT22;39101;53.478;6.158;2023-01-15T04:11:08;6.90;99.90
51500;DHT22;39101;53.478;6.158;2023-01-15T04:13:33;6.80;99.90
51500;DHT22;39101;53.478;6.158;2023-01-15T04:16:00;6.40;99.90
51500;DHT22;39101;53.478;6.158;2023-01-15T04:18:26;6.50;99.90
51500;DHT22;39101;53.478;6.158;2023-01-15T04:20:52;6.20;99.90
51500;DHT22;39101;53.478;6.158;2023-01-15T04:23:21;6.50;99.90
51500;DHT22;39101;53.478;6.158;2023-01-15T04:25:47;6.60;99.90
51500;DHT22;39101;53.478;6.158;2023-01-15T04:28:13;6.20;99.90
51500;DHT22;39101;53.478;6.158;2023-01-15T04:30:39;6.10;99.90
51500;DHT22;39101;53.478;6.158;2023-01-15T04:33:07;6.60;99.90
51500;DHT22;39101;53.478;6.158;2023-01-15T04:35:33;6.40;99.90
51500;DHT22;39101;53.478;6.158;2023-01-15T04:38:00;6.20;99.90
51500;DHT22;39101;53.478;6.158;2023-01-15T04:40:26;6.10;99.90
51500;DHT22;39101;53.478;6.158;2023-01-15T04:43:11;6.50;99.90
51500;DHT22;39101;53.478;6.158;2023-01-15T04:45:56;6.40;99.90
51500;DHT22;39101;53.478;6.158;2023-01-15T04:48:22;6.30;99.90
51500;DHT22;39101;53.478;6.158;2023-01-15T04:50:48;6.40;99.90
51500;DHT22;39101;53.478;6.158;2023-01-15T04:53:14;6.40;99.90
51500;DHT22;39101;53.478;6.158;2023-01-15T04:55:39;6.10;99.90
51500;DHT22;39101;53.478;6.158;2023-01-15T04:58:06;6.40;99.90
51500;DHT22;39101;53.478;6.158;2023-01-15T05:00:31;5.90;99.90
51500;DHT22;39101;53.478;6.158;2023-01-15T05:02:57;6.30;99.90
51500;DHT22;39101;53.478;6.158;2023-01-15T05:05:23;5.90;99.90
51500;DHT22;39101;53.478;6.158;2023-01-15T05:07:48;5.90;99.90
51500;DHT22;39101;53.478;6.158;2023-01-15T05:10:14;6.10;99.90
51500;DHT22;39101;53.478;6.158;2023-01-15T05:12:40;6.30;99.90
51500;DHT22;39101;53.478;6.158;2023-01-15T05:15:06;6.10;99.90
51500;DHT22;39101;53.478;6.158;2023-01-15T05:17:33;5.90;99.90
51500;DHT22;39101;53.478;6.158;2023-01-15T05:19:59;5.90;99.90
51500;DHT22;39101;53.478;6.158;2023-01-15T05:22:24;5.80;99.90
51500;DHT22;39101;53.478;6.158;2023-01-15T05:24:50;6.20;99.90
51500;DHT22;39101;53.478;6.158;2023-01-15T05:27:16;5.90;99.90
51500;DHT22;39101;53.478;6.158;2023-01-15T05:29:42;6.30;99.90
51500;DHT22;39101;53.478;6.158;2023-01-15T05:32:07;5.90;99.90
51500;DHT22;39101;53.478;6.158;2023-01-15T05:34:33;6.40;99.90
51500;DHT22;39101;53.478;6.158;2023-01-15T05:36:59;5.90;99.90
51500;DHT22;39101;53.478;6.158;2023-01-15T05:39:24;5.90;99.90
51500;DHT22;39101;53.478;6.158;2023-01-15T05:41:50;6.30;99.90
51500;DHT22;39101;53.478;6.158;2023-01-15T05:44:27;5.70;99.90
51500;DHT22;39101;53.478;6.158;2023-01-15T05:46:57;6.30;99.90
51500;DHT22;39101;53.478;6.158;2023-01-15T05:49:25;5.90;99.90
51500;DHT22;39101;53.478;6.158;2023-01-15T05:51:52;5.80;99.90
51500;DHT22;39101;53.478;6.158;2023-01-15T05:54:21;5.70;99.90
51500;DHT22;39101;53.478;6.158;2023-01-15T05:56:47;6.00;99.90
51500;DHT22;39101;53.478;6.158;2023-01-15T05:59:14;6.10;99.90
51500;DHT22;39101;53.478;6.158;2023-01-15T06:01:41;5.90;99.90
51500;DHT22;39101;53.478;6.158;2023-01-15T06:04:07;6.10;99.90
51500;DHT22;39101;53.478;6.158;2023-01-15T06:06:33;6.10;99.90
51500;DHT22;39101;53.478;6.158;2023-01-15T06:09:00;5.70;99.90
51500;DHT22;39101;53.478;6.158;2023-01-15T06:11:26;6.20;99.90
51500;DHT22;39101;53.478;6.158;2023-01-15T06:13:51;6.40;99.90
51500;DHT22;39101;53.478;6.158;2023-01-15T06:16:17;6.00;99.90
51500;DHT22;39101;53.478;6.158;2023-01-15T06:18:43;6.00;99.90
51500;DHT22;39101;53.478;6.158;2023-01-15T06:21:11;6.20;99.90
51500;DHT22;39101;53.478;6.158;2023-01-15T06:23:37;5.80;99.90
51500;DHT22;39101;53.478;6.158;2023-01-15T06:26:06;5.90;99.90
51500;DHT22;39101;53.478;6.158;2023-01-15T06:28:32;6.10;99.90
51500;DHT22;39101;53.478;6.158;2023-01-15T06:30:58;6.10;99.90
51500;DHT22;39101;53.478;6.158;2023-01-15T06:33:24;6.10;99.90
51500;DHT22;39101;53.478;6.158;2023-01-15T06:35:50;5.70;99.90
51500;DHT22;39101;53.478;6.158;2023-01-15T06:38:17;6.30;99.90
51500;DHT22;39101;53.478;6.158;2023-01-15T06:40:43;6.00;99.90
51500;DHT22;39101;53.478;6.158;2023-01-15T06:43:09;6.10;99.90
51500;DHT22;39101;53.478;6.158;2023-01-15T06:45:54;5.70;99.90
51500;DHT22;39101;53.478;6.158;2023-01-15T06:48:38;5.90;99.90
51500;DHT22;39101;53.478;6.158;2023-01-15T06:51:03;5.70;99.90
51500;DHT22;39101;53.478;6.158;2023-01-15T06:53:29;6.10;99.90
51500;DHT22;39101;53.478;6.158;2023-01-15T06:55:55;6.00;99.90
51500;DHT22;39101;53.478;6.158;2023-01-15T06:58:20;5.80;99.90
51500;DHT22;39101;53.478;6.158;2023-01-15T07:00:49;6.00;99.90
51500;DHT22;39101;53.478;6.158;2023-01-15T07:03:21;5.90;99.90
51500;DHT22;39101;53.478;6.158;2023-01-15T07:05:47;6.10;99.90
51500;DHT22;39101;53.478;6.158;2023-01-15T07:08:12;5.60;99.90
51500;DHT22;39101;53.478;6.158;2023-01-15T07:10:38;5.90;99.90
51500;DHT22;39101;53.478;6.158;2023-01-15T07:13:07;5.60;99.90
51500;DHT22;39101;53.478;6.158;2023-01-15T07:15:34;5.80;99.90
51500;DHT22;39101;53.478;6.158;2023-01-15T07:17:59;6.00;99.90
51500;DHT22;39101;53.478;6.158;2023-01-15T07:20:25;5.70;99.90
51500;DHT22;39101;53.478;6.158;2023-01-15T07:22:51;6.00;99.90
51500;DHT22;39101;53.478;6.158;2023-01-15T07:25:17;6.10;99.90
51500;DHT22;39101;53.478;6.158;2023-01-15T07:27:45;6.20;99.90
51500;DHT22;39101;53.478;6.158;2023-01-15T07:30:11;6.10;99.90
51500;DHT22;39101;53.478;6.158;2023-01-15T07:32:37;6.20;99.90
51500;DHT22;39101;53.478;6.158;2023-01-15T07:35:03;6.10;99.90
51500;DHT22;39101;53.478;6.158;2023-01-15T07:37:28;5.90;99.90
51500;DHT22;39101;53.478;6.158;2023-01-15T07:39:54;5.70;99.90
51500;DHT22;39101;53.478;6.158;2023-01-15T07:42:21;5.70;99.90
51500;DHT22;39101;53.478;6.158;2023-01-15T07:45:07;5.60;99.90
51500;DHT22;39101;53.478;6.158;2023-01-15T07:47:53;6.00;99.90
51500;DHT22;39101;53.478;6.158;2023-01-15T07:50:37;6.00;99.90
51500;DHT22;39101;53.478;6.158;2023-01-15T07:53:03;5.60;99.90
51500;DHT22;39101;53.478;6.158;2023-01-15T07:55:28;5.90;99.90
51500;DHT22;39101;53.478;6.158;2023-01-15T07:57:54;5.80;99.90
51500;DHT22;39101;53.478;6.158;2023-01-15T08:00:22;5.60;99.90
51500;DHT22;39101;53.478;6.158;2023-01-15T08:02:48;6.10;99.90
51500;DHT22;39101;53.478;6.158;2023-01-15T08:05:15;6.00;99.90
51500;DHT22;39101;53.478;6.158;2023-01-15T08:07:42;6.00;99.90
51500;DHT22;39101;53.478;6.158;2023-01-15T08:10:09;5.70;99.90
51500;DHT22;39101;53.478;6.158;2023-01-15T08:12:35;6.10;99.90
51500;DHT22;39101;53.478;6.158;2023-01-15T08:15:20;6.20;99.90
51500;DHT22;39101;53.478;6.158;2023-01-15T08:17:47;6.30;99.90
51500;DHT22;39101;53.478;6.158;2023-01-15T08:20:16;5.40;99.90
51500;DHT22;39101;53.478;6.158;2023-01-15T08:22:42;4.90;99.90
51500;DHT22;39101;53.478;6.158;2023-01-15T08:25:10;4.70;99.90
51500;DHT22;39101;53.478;6.158;2023-01-15T08:27:37;5.30;99.90
51500;DHT22;39101;53.478;6.158;2023-01-15T08:30:04;5.20;99.90
51500;DHT22;39101;53.478;6.158;2023-01-15T08:32:30;5.10;99.90
51500;DHT22;39101;53.478;6.158;2023-01-15T08:34:56;5.00;99.90
51500;DHT22;39101;53.478;6.158;2023-01-15T08:37:22;5.20;99.90
51500;DHT22;39101;53.478;6.158;2023-01-15T08:39:47;5.50;99.90
51500;DHT22;39101;53.478;6.158;2023-01-15T08:42:15;5.80;99.90
51500;DHT22;39101;53.478;6.158;2023-01-15T08:44:40;5.40;99.90
51500;DHT22;39101;53.478;6.158;2023-01-15T08:47:06;5.30;99.90
51500;DHT22;39101;53.478;6.158;2023-01-15T08:49:32;5.20;99.90
51500;DHT22;39101;53.478;6.158;2023-01-15T08:51:58;5.30;99.90
51500;DHT22;39101;53.478;6.158;2023-01-15T08:54:25;5.70;99.90
51500;DHT22;39101;53.478;6.158;2023-01-15T08:56:51;5.20;99.90
51500;DHT22;39101;53.478;6.158;2023-01-15T08:59:17;5.50;99.90
51500;DHT22;39101;53.478;6.158;2023-01-15T09:01:43;5.70;99.90
51500;DHT22;39101;53.478;6.158;2023-01-15T09:04:17;5.70;99.90
51500;DHT22;39101;53.478;6.158;2023-01-15T09:06:44;6.00;99.90
51500;DHT22;39101;53.478;6.158;2023-01-15T09:09:10;6.10;99.90
51500;DHT22;39101;53.478;6.158;2023-01-15T09:11:36;6.10;99.90
51500;DHT22;39101;53.478;6.158;2023-01-15T09:14:06;5.90;99.90
51500;DHT22;39101;53.478;6.158;2023-01-15T09:16:32;5.80;99.90
51500;DHT22;39101;53.478;6.158;2023-01-15T09:18:58;6.10;99.90
51500;DHT22;39101;53.478;6.158;2023-01-15T09:21:23;6.20;99.90
51500;DHT22;39101;53.478;6.158;2023-01-15T09:23:49;6.20;99.90
51500;DHT22;39101;53.478;6.158;2023-01-15T09:28:49;5.90;99.90
51500;DHT22;39101;53.478;6.158;2023-01-15T09:31:15;6.10;99.90
51500;DHT22;39101;53.478;6.158;2023-01-15T09:33:41;6.00;99.90
51500;DHT22;39101;53.478;6.158;2023-01-15T09:36:14;6.20;99.90
51500;DHT22;39101;53.478;6.158;2023-01-15T09:38:41;6.50;99.90
51500;DHT22;39101;53.478;6.158;2023-01-15T09:41:10;6.60;99.90
51500;DHT22;39101;53.478;6.158;2023-01-15T09:44:29;6.10;99.90
51500;DHT22;39101;53.478;6.158;2023-01-15T09:47:00;6.10;99.90
51500;DHT22;39101;53.478;6.158;2023-01-15T09:52:37;6.00;99.90
51500;DHT22;39101;53.478;6.158;2023-01-15T09:57:41;6.50;99.90
51500;DHT22;39101;53.478;6.158;2023-01-15T10:00:36;6.50;99.90
51500;DHT22;39101;53.478;6.158;2023-01-15T10:05:39;6.40;99.90
51500;DHT22;39101;53.478;6.158;2023-01-15T10:08:14;6.40;99.90
51500;DHT22;39101;53.478;6.158;2023-01-15T10:10:49;6.20;99.90
51500;DHT22;39101;53.478;6.158;2023-01-15T10:13:27;6.70;99.90
51500;DHT22;39101;53.478;6.158;2023-01-15T10:15:55;6.50;99.90
51500;DHT22;39101;53.478;6.158;2023-01-15T10:18:25;6.60;99.90
51500;DHT22;39101;53.478;6.158;2023-01-15T10:26:57;6.70;99.90
51500;DHT22;39101;53.478;6.158;2023-01-15T10:29:36;6.30;99.90
51500;DHT22;39101;53.478;6.158;2023-01-15T10:45:45;6.90;99.90
51500;DHT22;39101;53.478;6.158;2023-01-15T10:48:20;6.80;99.90
51500;DHT22;39101;53.478;6.158;2023-01-15T10:50:49;6.80;99.90
51500;DHT22;39101;53.478;6.158;2023-01-15T10:53:45;6.80;99.90
51500;DHT22;39101;53.478;6.158;2023-01-15T10:56:18;7.10;99.90
51500;DHT22;39101;53.478;6.158;2023-01-15T10:58:51;7.00;99.90
51500;DHT22;39101;53.478;6.158;2023-01-15T11:01:20;6.80;99.90
51500;DHT22;39101;53.478;6.158;2023-01-15T11:03:48;6.70;99.90
51500;DHT22;39101;53.478;6.158;2023-01-15T11:06:16;6.60;99.90
51500;DHT22;39101;53.478;6.158;2023-01-15T11:08:45;6.40;99.90
51500;DHT22;39101;53.478;6.158;2023-01-15T11:11:39;6.30;99.90
51500;DHT22;39101;53.478;6.158;2023-01-15T11:14:20;6.30;99.90
51500;DHT22;39101;53.478;6.158;2023-01-15T11:17:14;5.80;99.90
51500;DHT22;39101;53.478;6.158;2023-01-15T11:19:58;5.80;99.90
51500;DHT22;39101;53.478;6.158;2023-01-15T11:22:27;5.90;99.90
51500;DHT22;39101;53.478;6.158;2023-01-15T11:24:57;5.80;99.90
51500;DHT22;39101;53.478;6.158;2023-01-15T11:27:25;5.80;99.90
51500;DHT22;39101;53.478;6.158;2023-01-15T11:29:54;6.20;99.90
51500;DHT22;39101;53.478;6.158;2023-01-15T11:37:27;6.20;99.90
51500;DHT22;39101;53.478;6.158;2023-01-15T11:39:57;6.00;99.90
51500;DHT22;39101;53.478;6.158;2023-01-15T11:42:35;6.30;99.90
51500;DHT22;39101;53.478;6.158;2023-01-15T11:45:21;6.20;99.90
51500;DHT22;39101;53.478;6.158;2023-01-15T11:48:23;5.70;99.90
51500;DHT22;39101;53.478;6.158;2023-01-15T11:51:12;6.10;99.90
51500;DHT22;39101;53.478;6.158;2023-01-15T11:53:48;5.80;99.90
51500;DHT22;39101;53.478;6.158;2023-01-15T11:56:21;5.60;99.90
51500;DHT22;39101;53.478;6.158;2023-01-15T11:58:51;5.60;99.90
51500;DHT22;39101;53.478;6.158;2023-01-15T12:01:39;6.10;99.90
51500;DHT22;39101;53.478;6.158;2023-01-15T12:06:55;5.40;99.90
51500;DHT22;39101;53.478;6.158;2023-01-15T12:14:33;6.10;99.90
51500;DHT22;39101;53.478;6.158;2023-01-15T12:17:56;5.80;99.90
51500;DHT22;39101;53.478;6.158;2023-01-15T12:20:43;5.60;99.90
51500;DHT22;39101;53.478;6.158;2023-01-15T12:28:48;5.10;99.90
51500;DHT22;39101;53.478;6.158;2023-01-15T12:31:21;5.70;99.90
51500;DHT22;39101;53.478;6.158;2023-01-15T12:33:51;5.90;99.90
51500;DHT22;39101;53.478;6.158;2023-01-15T12:36:21;5.40;99.90
51500;DHT22;39101;53.478;6.158;2023-01-15T12:39:08;5.90;99.90
51500;DHT22;39101;53.478;6.158;2023-01-15T12:41:40;5.40;99.90
51500;DHT22;39101;53.478;6.158;2023-01-15T12:47:21;5.50;99.90
51500;DHT22;39101;53.478;6.158;2023-01-15T12:49:54;6.00;99.90
51500;DHT22;39101;53.478;6.158;2023-01-15T12:52:26;5.90;99.90
51500;DHT22;39101;53.478;6.158;2023-01-15T12:58:16;5.80;99.90
51500;DHT22;39101;53.478;6.158;2023-01-15T13:00:44;5.90;99.90
51500;DHT22;39101;53.478;6.158;2023-01-15T13:03:27;5.80;99.90
51500;DHT22;39101;53.478;6.158;2023-01-15T13:06:00;6.10;99.90
51500;DHT22;39101;53.478;6.158;2023-01-15T13:08:37;6.00;99.90
51500;DHT22;39101;53.478;6.158;2023-01-15T13:11:08;6.00;99.90
51500;DHT22;39101;53.478;6.158;2023-01-15T13:13:38;5.70;99.90
51500;DHT22;39101;53.478;6.158;2023-01-15T13:18:53;6.00;99.90
51500;DHT22;39101;53.478;6.158;2023-01-15T13:21:23;5.80;99.90
51500;DHT22;39101;53.478;6.158;2023-01-15T13:24:18;5.80;99.90
51500;DHT22;39101;53.478;6.158;2023-01-15T13:29:36;6.20;99.90
51500;DHT22;39101;53.478;6.158;2023-01-15T13:32:22;6.30;99.90
51500;DHT22;39101;53.478;6.158;2023-01-15T13:37:33;6.00;99.90
51500;DHT22;39101;53.478;6.158;2023-01-15T13:40:17;6.20;99.90
51500;DHT22;39101;53.478;6.158;2023-01-15T13:42:49;6.40;99.90
51500;DHT22;39101;53.478;6.158;2023-01-15T13:45:40;6.70;99.90
51500;DHT22;39101;53.478;6.158;2023-01-15T13:50:42;6.80;99.90
51500;DHT22;39101;53.478;6.158;2023-01-15T13:53:16;6.70;99.90
51500;DHT22;39101;53.478;6.158;2023-01-15T13:55:54;6.10;99.90
51500;DHT22;39101;53.478;6.158;2023-01-15T13:58:29;6.20;99.90
51500;DHT22;39101;53.478;6.158;2023-01-15T14:01:02;6.20;99.90
51500;DHT22;39101;53.478;6.158;2023-01-15T14:03:30;6.20;99.90
51500;DHT22;39101;53.478;6.158;2023-01-15T14:06:01;6.70;99.90
51500;DHT22;39101;53.478;6.158;2023-01-15T14:08:42;6.70;99.90
51500;DHT22;39101;53.478;6.158;2023-01-15T14:11:31;6.30;99.90
51500;DHT22;39101;53.478;6.158;2023-01-15T14:25:06;6.80;99.90
51500;DHT22;39101;53.478;6.158;2023-01-15T14:30:46;6.30;99.90
51500;DHT22;39101;53.478;6.158;2023-01-15T14:35:46;6.30;99.90
51500;DHT22;39101;53.478;6.158;2023-01-15T14:38:15;6.80;99.90
51500;DHT22;39101;53.478;6.158;2023-01-15T14:41:04;6.80;99.90
51500;DHT22;39101;53.478;6.158;2023-01-15T14:43:33;6.90;99.90
51500;DHT22;39101;53.478;6.158;2023-01-15T14:48:38;6.80;99.90
51500;DHT22;39101;53.478;6.158;2023-01-15T14:51:21;6.30;99.90
51500;DHT22;39101;53.478;6.158;2023-01-15T14:56:34;6.40;99.90
51500;DHT22;39101;53.478;6.158;2023-01-15T14:59:20;6.90;99.90
51500;DHT22;39101;53.478;6.158;2023-01-15T15:01:51;6.90;99.90
51500;DHT22;39101;53.478;6.158;2023-01-15T15:04:43;6.50;99.90
51500;DHT22;39101;53.478;6.158;2023-01-15T15:07:18;7.00;99.90
51500;DHT22;39101;53.478;6.158;2023-01-15T15:09:48;7.00;99.90
51500;DHT22;39101;53.478;6.158;2023-01-15T15:26:27;6.90;99.90
51500;DHT22;39101;53.478;6.158;2023-01-15T15:28:57;6.40;99.90
51500;DHT22;39101;53.478;6.158;2023-01-15T15:31:23;6.30;99.90
51500;DHT22;39101;53.478;6.158;2023-01-15T15:33:54;6.90;99.90
51500;DHT22;39101;53.478;6.158;2023-01-15T15:36:24;6.30;99.90
51500;DHT22;39101;53.478;6.158;2023-01-15T15:38:59;6.40;99.90
51500;DHT22;39101;53.478;6.158;2023-01-15T15:41:29;6.30;99.90
51500;DHT22;39101;53.478;6.158;2023-01-15T15:44:22;6.70;99.90
51500;DHT22;39101;53.478;6.158;2023-01-15T15:47:21;6.30;99.90
51500;DHT22;39101;53.478;6.158;2023-01-15T15:50:06;6.70;99.90
51500;DHT22;39101;53.478;6.158;2023-01-15T15:52:33;6.50;99.90
51500;DHT22;39101;53.478;6.158;2023-01-15T15:55:01;6.70;99.90
51500;DHT22;39101;53.478;6.158;2023-01-15T15:57:30;6.70;99.90
51500;DHT22;39101;53.478;6.158;2023-01-15T15:59:56;6.10;99.90
51500;DHT22;39101;53.478;6.158;2023-01-15T16:02:33;6.80;99.90
51500;DHT22;39101;53.478;6.158;2023-01-15T16:05:23;6.40;99.90
51500;DHT22;39101;53.478;6.158;2023-01-15T16:07:49;6.70;99.90
51500;DHT22;39101;53.478;6.158;2023-01-15T16:10:25;6.70;99.90
51500;DHT22;39101;53.478;6.158;2023-01-15T16:12:57;6.70;99.90
51500;DHT22;39101;53.478;6.158;2023-01-15T16:15:26;6.50;99.90
51500;DHT22;39101;53.478;6.158;2023-01-15T16:17:55;6.20;99.90
51500;DHT22;39101;53.478;6.158;2023-01-15T16:20:21;6.30;99.90
51500;DHT22;39101;53.478;6.158;2023-01-15T16:22:59;6.60;99.90
51500;DHT22;39101;53.478;6.158;2023-01-15T16:27:56;6.20;99.90
51500;DHT22;39101;53.478;6.158;2023-01-15T16:30:23;6.40;99.90
51500;DHT22;39101;53.478;6.158;2023-01-15T16:32:50;6.10;99.90
51500;DHT22;39101;53.478;6.158;2023-01-15T16:35:23;6.70;99.90
51500;DHT22;39101;53.478;6.158;2023-01-15T16:37:54;6.30;99.90
51500;DHT22;39101;53.478;6.158;2023-01-15T16:40:31;6.10;99.90
51500;DHT22;39101;53.478;6.158;2023-01-15T16:43:10;6.60;99.90
51500;DHT22;39101;53.478;6.158;2023-01-15T16:45:56;6.20;99.90
51500;DHT22;39101;53.478;6.158;2023-01-15T16:48:27;6.50;99.90
51500;DHT22;39101;53.478;6.158;2023-01-15T16:50:54;6.50;99.90
51500;DHT22;39101;53.478;6.158;2023-01-15T16:55:52;6.00;99.90
51500;DHT22;39101;53.478;6.158;2023-01-15T16:58:35;6.50;99.90
51500;DHT22;39101;53.478;6.158;2023-01-15T17:01:31;6.50;99.90
51500;DHT22;39101;53.478;6.158;2023-01-15T17:03:58;5.90;99.90
51500;DHT22;39101;53.478;6.158;2023-01-15T17:06:25;6.20;99.90
51500;DHT22;39101;53.478;6.158;2023-01-15T17:08:52;6.40;99.90
51500;DHT22;39101;53.478;6.158;2023-01-15T17:11:27;6.00;99.90
51500;DHT22;39101;53.478;6.158;2023-01-15T17:14:20;6.40;99.90
51500;DHT22;39101;53.478;6.158;2023-01-15T17:16:46;6.00;99.90
51500;DHT22;39101;53.478;6.158;2023-01-15T17:19:12;5.90;99.90
51500;DHT22;39101;53.478;6.158;2023-01-15T17:21:38;6.20;99.90
51500;DHT22;39101;53.478;6.158;2023-01-15T17:24:07;5.90;99.90
51500;DHT22;39101;53.478;6.158;2023-01-15T17:26:33;6.40;99.90
51500;DHT22;39101;53.478;6.158;2023-01-15T17:28:59;5.90;99.90
51500;DHT22;39101;53.478;6.158;2023-01-15T17:31:27;6.50;99.90
51500;DHT22;39101;53.478;6.158;2023-01-15T17:33:57;6.00;99.90
51500;DHT22;39101;53.478;6.158;2023-01-15T17:36:24;6.40;99.90
51500;DHT22;39101;53.478;6.158;2023-01-15T17:38:49;6.40;99.90
51500;DHT22;39101;53.478;6.158;2023-01-15T17:41:17;6.40;99.90
51500;DHT22;39101;53.478;6.158;2023-01-15T17:43:43;6.30;99.90
51500;DHT22;39101;53.478;6.158;2023-01-15T17:46:09;5.80;99.90
51500;DHT22;39101;53.478;6.158;2023-01-15T17:48:35;6.20;99.90
51500;DHT22;39101;53.478;6.158;2023-01-15T17:51:02;5.70;99.90
51500;DHT22;39101;53.478;6.158;2023-01-15T17:53:28;5.80;99.90
51500;DHT22;39101;53.478;6.158;2023-01-15T17:55:54;6.30;99.90
51500;DHT22;39101;53.478;6.158;2023-01-15T17:58:39;5.80;99.90
51500;DHT22;39101;53.478;6.158;2023-01-15T18:01:25;5.80;99.90
51500;DHT22;39101;53.478;6.158;2023-01-15T18:04:23;5.90;99.90
51500;DHT22;39101;53.478;6.158;2023-01-15T18:07:07;6.30;99.90
51500;DHT22;39101;53.478;6.158;2023-01-15T18:09:34;6.30;99.90
51500;DHT22;39101;53.478;6.158;2023-01-15T18:12:00;6.10;99.90
51500;DHT22;39101;53.478;6.158;2023-01-15T18:14:26;6.40;99.90
51500;DHT22;39101;53.478;6.158;2023-01-15T18:16:52;6.00;99.90
51500;DHT22;39101;53.478;6.158;2023-01-15T18:19:18;6.50;99.90
51500;DHT22;39101;53.478;6.158;2023-01-15T18:21:43;5.90;99.90
51500;DHT22;39101;53.478;6.158;2023-01-15T18:24:10;5.90;99.90
51500;DHT22;39101;53.478;6.158;2023-01-15T18:26:38;6.40;99.90